sensor_id;sensor_type;location;lat;lon;timestamp;P1;durP1;ratioP1;P2;durP2;ratioP2
74791;SDS011;63319;46.046;17.802;2022-11-28T00:02:35;10.82;;;6.78;;
74791;SDS011;63319;46.046;17.802;2022-11-28T00:05:39;10.37;;;6.20;;
74791;SDS011;63319;46.046;17.802;2022-11-28T00:08:48;10.03;;;5.93;;
74791;SDS011;63319;46.046;17.802;2022-11-28T00:11:51;10.93;;;6.07;;
74791;SDS011;63319;46.046;17.802;2022-11-28T00:14:54;9.63;;;6.10;;
74791;SDS011;63319;46.046;17.802;2022-11-28T00:17:56;10.80;;;6.47;;
74791;SDS011;63319;46.046;17.802;2022-11-28T00:21:04;9.47;;;5.90;;
74791;SDS011;63319;46.046;17.802;2022-11-28T00:24:08;9.87;;;6.40;;
74791;SDS011;63319;46.046;17.802;2022-11-28T00:27:11;10.52;;;6.55;;
74791;SDS011;63319;46.046;17.802;2022-11-28T00:30:14;10.55;;;6.20;;
74791;SDS011;63319;46.046;17.802;2022-11-28T00:33:16;10.45;;;6.80;;
74791;SDS011;63319;46.046;17.802;2022-11-28T00:36:19;9.67;;;6.23;;
74791;SDS011;63319;46.046;17.802;2022-11-28T00:39:22;10.17;;;6.17;;
74791;SDS011;63319;46.046;17.802;2022-11-28T00:42:25;9.32;;;5.57;;
74791;SDS011;63319;46.046;17.802;2022-11-28T00:45:28;9.80;;;6.15;;
74791;SDS011;63319;46.046;17.802;2022-11-28T00:48:31;11.05;;;6.53;;
74791;SDS011;63319;46.046;17.802;2022-11-28T00:51:35;11.20;;;6.97;;
74791;SDS011;63319;46.046;17.802;2022-11-28T00:54:37;9.67;;;6.13;;
74791;SDS011;63319;46.046;17.802;2022-11-28T00:57:41;10.77;;;6.47;;
74791;SDS011;63319;46.046;17.802;2022-11-28T01:00:43;9.63;;;5.97;;
74791;SDS011;63319;46.046;17.802;2022-11-28T01:03:47;10.07;;;6.05;;
74791;SDS011;63319;46.046;17.802;2022-11-28T01:06:51;9.40;;;5.97;;
74791;SDS011;63319;46.046;17.802;2022-11-28T01:09:54;10.83;;;6.37;;
74791;SDS011;63319;46.046;17.802;2022-11-28T01:12:57;9.25;;;6.03;;
74791;SDS011;63319;46.046;17.802;2022-11-28T01:15:59;11.38;;;6.53;;
74791;SDS011;63319;46.046;17.802;2022-11-28T01:19:02;10.68;;;6.10;;
74791;SDS011;63319;46.046;17.802;2022-11-28T01:22:05;9.63;;;6.07;;
74791;SDS011;63319;46.046;17.802;2022-11-28T01:25:08;10.27;;;6.33;;
74791;SDS011;63319;46.046;17.802;2022-11-28T01:28:11;9.80;;;6.07;;
74791;SDS011;63319;46.046;17.802;2022-11-28T01:31:14;10.20;;;6.07;;
74791;SDS011;63319;46.046;17.802;2022-11-28T01:34:19;9.20;;;5.60;;
74791;SDS011;63319;46.046;17.802;2022-11-28T01:37:22;11.07;;;6.57;;
74791;SDS011;63319;46.046;17.802;2022-11-28T01:40:25;11.27;;;6.63;;
74791;SDS011;63319;46.046;17.802;2022-11-28T01:43:27;10.25;;;6.13;;
74791;SDS011;63319;46.046;17.802;2022-11-28T01:46:31;9.63;;;5.38;;
74791;SDS011;63319;46.046;17.802;2022-11-28T01:49:35;9.88;;;5.57;;
74791;SDS011;63319;46.046;17.802;2022-11-28T01:52:40;9.73;;;5.60;;
74791;SDS011;63319;46.046;17.802;2022-11-28T01:55:51;9.30;;;5.40;;
74791;SDS011;63319;46.046;17.802;2022-11-28T01:59:00;8.95;;;5.57;;
74791;SDS011;63319;46.046;17.802;2022-11-28T02:02:32;9.60;;;5.85;;
74791;SDS011;63319;46.046;17.802;2022-11-28T02:05:47;9.15;;;5.10;;
74791;SDS011;63319;46.046;17.802;2022-11-28T02:08:53;9.80;;;5.70;;
74791;SDS011;63319;46.046;17.802;2022-11-28T02:12:11;9.27;;;5.30;;
74791;SDS011;63319;46.046;17.802;2022-11-28T02:32:12;9.73;;;6.15;;
74791;SDS011;63319;46.046;17.802;2022-11-28T02:35:22;10.18;;;6.38;;
74791;SDS011;63319;46.046;17.802;2022-11-28T02:38:40;8.65;;;5.40;;
74791;SDS011;63319;46.046;17.802;2022-11-28T02:42:07;8.63;;;5.30;;
74791;SDS011;63319;46.046;17.802;2022-11-28T02:45:28;8.73;;;5.47;;
74791;SDS011;63319;46.046;17.802;2022-11-28T02:48:42;10.30;;;6.80;;
74791;SDS011;63319;46.046;17.802;2022-11-28T02:51:55;10.10;;;5.80;;
74791;SDS011;63319;46.046;17.802;2022-11-28T02:55:01;9.80;;;5.82;;
74791;SDS011;63319;46.046;17.802;2022-11-28T02:58:05;11.40;;;6.63;;
74791;SDS011;63319;46.046;17.802;2022-11-28T03:01:30;8.93;;;5.57;;
74791;SDS011;63319;46.046;17.802;2022-11-28T03:15:11;10.00;;;5.77;;
74791;SDS011;63319;46.046;17.802;2022-11-28T03:18:25;8.70;;;4.93;;
74791;SDS011;63319;46.046;17.802;2022-11-28T03:21:39;10.60;;;5.90;;
74791;SDS011;63319;46.046;17.802;2022-11-28T03:25:02;10.23;;;6.00;;
74791;SDS011;63319;46.046;17.802;2022-11-28T03:28:10;9.82;;;5.70;;
74791;SDS011;63319;46.046;17.802;2022-11-28T03:31:23;11.73;;;5.93;;
74791;SDS011;63319;46.046;17.802;2022-11-28T03:34:31;9.80;;;5.77;;
74791;SDS011;63319;46.046;17.802;2022-11-28T03:37:39;12.48;;;6.25;;
74791;SDS011;63319;46.046;17.802;2022-11-28T03:40:51;10.85;;;6.13;;
74791;SDS011;63319;46.046;17.802;2022-11-28T03:43:57;11.00;;;6.47;;
74791;SDS011;63319;46.046;17.802;2022-11-28T03:47:03;12.23;;;6.40;;
74791;SDS011;63319;46.046;17.802;2022-11-28T03:50:08;10.47;;;6.43;;
74791;SDS011;63319;46.046;17.802;2022-11-28T03:53:21;10.23;;;5.97;;
74791;SDS011;63319;46.046;17.802;2022-11-28T03:59:40;11.07;;;6.47;;
74791;SDS011;63319;46.046;17.802;2022-11-28T04:09:20;11.00;;;6.18;;
74791;SDS011;63319;46.046;17.802;2022-11-28T04:12:45;12.85;;;7.53;;
74791;SDS011;63319;46.046;17.802;2022-11-28T04:16:04;10.43;;;6.07;;
74791;SDS011;63319;46.046;17.802;2022-11-28T04:22:23;12.63;;;6.87;;
74791;SDS011;63319;46.046;17.802;2022-11-28T04:25:33;9.75;;;5.57;;
74791;SDS011;63319;46.046;17.802;2022-11-28T04:28:39;11.10;;;6.10;;
74791;SDS011;63319;46.046;17.802;2022-11-28T04:31:43;11.07;;;6.80;;
74791;SDS011;63319;46.046;17.802;2022-11-28T04:34:51;8.77;;;5.43;;
74791;SDS011;63319;46.046;17.802;2022-11-28T04:37:57;9.70;;;6.17;;
74791;SDS011;63319;46.046;17.802;2022-11-28T04:41:08;12.25;;;6.53;;
74791;SDS011;63319;46.046;17.802;2022-11-28T04:44:16;10.20;;;5.68;;
74791;SDS011;63319;46.046;17.802;2022-11-28T04:47:26;9.48;;;5.38;;
74791;SDS011;63319;46.046;17.802;2022-11-28T04:50:31;10.77;;;6.23;;
74791;SDS011;63319;46.046;17.802;2022-11-28T04:54:00;11.20;;;6.23;;
74791;SDS011;63319;46.046;17.802;2022-11-28T04:57:19;9.48;;;5.68;;
74791;SDS011;63319;46.046;17.802;2022-11-28T05:00:32;10.50;;;6.32;;
74791;SDS011;63319;46.046;17.802;2022-11-28T05:03:37;8.82;;;5.35;;
74791;SDS011;63319;46.046;17.802;2022-11-28T05:06:44;10.43;;;5.60;;
74791;SDS011;63319;46.046;17.802;2022-11-28T05:09:47;10.47;;;5.97;;
74791;SDS011;63319;46.046;17.802;2022-11-28T05:12:50;10.13;;;5.90;;
74791;SDS011;63319;46.046;17.802;2022-11-28T05:15:52;11.10;;;6.10;;
74791;SDS011;63319;46.046;17.802;2022-11-28T05:18:55;10.85;;;5.72;;
74791;SDS011;63319;46.046;17.802;2022-11-28T05:21:58;9.80;;;5.33;;
74791;SDS011;63319;46.046;17.802;2022-11-28T05:25:01;9.53;;;5.87;;
74791;SDS011;63319;46.046;17.802;2022-11-28T05:28:03;10.68;;;5.47;;
74791;SDS011;63319;46.046;17.802;2022-11-28T05:31:07;9.13;;;5.07;;
74791;SDS011;63319;46.046;17.802;2022-11-28T05:34:10;10.82;;;5.90;;
74791;SDS011;63319;46.046;17.802;2022-11-28T05:37:12;10.03;;;6.23;;
74791;SDS011;63319;46.046;17.802;2022-11-28T05:40:15;11.40;;;6.83;;
74791;SDS011;63319;46.046;17.802;2022-11-28T05:43:18;9.88;;;5.80;;
74791;SDS011;63319;46.046;17.802;2022-11-28T05:46:20;9.95;;;6.18;;
74791;SDS011;63319;46.046;17.802;2022-11-28T05:49:25;9.75;;;5.63;;
74791;SDS011;63319;46.046;17.802;2022-11-28T05:52:28;11.40;;;6.67;;
74791;SDS011;63319;46.046;17.802;2022-11-28T05:55:33;10.50;;;5.97;;
74791;SDS011;63319;46.046;17.802;2022-11-28T05:58:36;9.27;;;6.35;;
74791;SDS011;63319;46.046;17.802;2022-11-28T06:01:39;11.65;;;6.88;;
74791;SDS011;63319;46.046;17.802;2022-11-28T06:04:42;11.18;;;6.43;;
74791;SDS011;63319;46.046;17.802;2022-11-28T06:07:45;11.27;;;6.30;;
74791;SDS011;63319;46.046;17.802;2022-11-28T06:10:54;10.47;;;6.53;;
74791;SDS011;63319;46.046;17.802;2022-11-28T06:13:58;11.10;;;6.25;;
74791;SDS011;63319;46.046;17.802;2022-11-28T06:17:01;11.02;;;6.13;;
74791;SDS011;63319;46.046;17.802;2022-11-28T06:20:04;11.00;;;6.43;;
74791;SDS011;63319;46.046;17.802;2022-11-28T06:23:08;10.47;;;6.33;;
74791;SDS011;63319;46.046;17.802;2022-11-28T06:26:12;10.43;;;6.10;;
74791;SDS011;63319;46.046;17.802;2022-11-28T06:29:17;10.13;;;5.63;;
74791;SDS011;63319;46.046;17.802;2022-11-28T06:32:20;10.10;;;6.47;;
74791;SDS011;63319;46.046;17.802;2022-11-28T06:35:23;10.57;;;5.88;;
74791;SDS011;63319;46.046;17.802;2022-11-28T06:38:26;11.50;;;6.37;;
74791;SDS011;63319;46.046;17.802;2022-11-28T06:41:29;11.37;;;6.57;;
74791;SDS011;63319;46.046;17.802;2022-11-28T06:44:32;12.55;;;7.25;;
74791;SDS011;63319;46.046;17.802;2022-11-28T06:47:35;10.65;;;6.32;;
74791;SDS011;63319;46.046;17.802;2022-11-28T06:50:38;11.40;;;6.50;;
74791;SDS011;63319;46.046;17.802;2022-11-28T06:53:41;10.83;;;6.30;;
74791;SDS011;63319;46.046;17.802;2022-11-28T06:56:45;10.73;;;6.97;;
74791;SDS011;63319;46.046;17.802;2022-11-28T06:59:48;9.70;;;5.75;;
74791;SDS011;63319;46.046;17.802;2022-11-28T07:02:52;11.90;;;6.68;;
74791;SDS011;63319;46.046;17.802;2022-11-28T07:05:58;10.82;;;6.32;;
74791;SDS011;63319;46.046;17.802;2022-11-28T07:09:15;11.73;;;6.60;;
74791;SDS011;63319;46.046;17.802;2022-11-28T07:12:29;10.90;;;6.67;;
74791;SDS011;63319;46.046;17.802;2022-11-28T07:15:32;10.38;;;6.75;;
74791;SDS011;63319;46.046;17.802;2022-11-28T07:18:35;11.57;;;6.85;;
74791;SDS011;63319;46.046;17.802;2022-11-28T07:21:38;13.10;;;6.13;;
74791;SDS011;63319;46.046;17.802;2022-11-28T07:24:42;11.13;;;5.97;;
74791;SDS011;63319;46.046;17.802;2022-11-28T07:27:47;10.77;;;6.27;;
74791;SDS011;63319;46.046;17.802;2022-11-28T07:34:18;11.15;;;6.75;;
74791;SDS011;63319;46.046;17.802;2022-11-28T07:37:21;10.63;;;6.32;;
74791;SDS011;63319;46.046;17.802;2022-11-28T07:40:24;10.97;;;6.47;;
74791;SDS011;63319;46.046;17.802;2022-11-28T07:43:27;11.27;;;7.20;;
74791;SDS011;63319;46.046;17.802;2022-11-28T07:46:31;11.05;;;7.10;;
74791;SDS011;63319;46.046;17.802;2022-11-28T07:49:35;12.52;;;6.93;;
74791;SDS011;63319;46.046;17.802;2022-11-28T07:52:38;13.40;;;7.10;;
74791;SDS011;63319;46.046;17.802;2022-11-28T07:55:41;12.77;;;6.00;;
74791;SDS011;63319;46.046;17.802;2022-11-28T07:58:45;12.97;;;7.57;;
74791;SDS011;63319;46.046;17.802;2022-11-28T08:01:49;11.60;;;6.63;;
74791;SDS011;63319;46.046;17.802;2022-11-28T08:04:56;11.90;;;5.95;;
74791;SDS011;63319;46.046;17.802;2022-11-28T08:08:00;10.55;;;6.30;;
74791;SDS011;63319;46.046;17.802;2022-11-28T08:11:04;12.17;;;6.33;;
74791;SDS011;63319;46.046;17.802;2022-11-28T08:14:09;14.37;;;7.03;;
74791;SDS011;63319;46.046;17.802;2022-11-28T08:17:13;12.10;;;6.55;;
74791;SDS011;63319;46.046;17.802;2022-11-28T08:20:17;14.45;;;6.50;;
74791;SDS011;63319;46.046;17.802;2022-11-28T08:23:20;13.57;;;7.47;;
74791;SDS011;63319;46.046;17.802;2022-11-28T08:26:24;10.60;;;6.63;;
74791;SDS011;63319;46.046;17.802;2022-11-28T08:29:32;14.97;;;7.13;;
74791;SDS011;63319;46.046;17.802;2022-11-28T08:32:35;14.73;;;7.32;;
74791;SDS011;63319;46.046;17.802;2022-11-28T08:35:38;12.85;;;7.35;;
74791;SDS011;63319;46.046;17.802;2022-11-28T08:38:41;14.02;;;7.10;;
74791;SDS011;63319;46.046;17.802;2022-11-28T08:42:08;11.63;;;6.97;;
74791;SDS011;63319;46.046;17.802;2022-11-28T08:45:11;16.00;;;7.93;;
74791;SDS011;63319;46.046;17.802;2022-11-28T08:48:14;10.88;;;6.95;;
74791;SDS011;63319;46.046;17.802;2022-11-28T08:51:18;13.05;;;7.28;;
74791;SDS011;63319;46.046;17.802;2022-11-28T08:54:23;15.02;;;7.97;;
74791;SDS011;63319;46.046;17.802;2022-11-28T08:57:26;11.23;;;7.00;;
74791;SDS011;63319;46.046;17.802;2022-11-28T09:00:30;11.47;;;7.33;;
74791;SDS011;63319;46.046;17.802;2022-11-28T09:03:34;12.05;;;6.82;;
74791;SDS011;63319;46.046;17.802;2022-11-28T09:06:38;13.38;;;7.65;;
74791;SDS011;63319;46.046;17.802;2022-11-28T09:09:44;15.45;;;8.40;;
74791;SDS011;63319;46.046;17.802;2022-11-28T09:12:50;15.40;;;8.23;;
74791;SDS011;63319;46.046;17.802;2022-11-28T09:15:53;15.77;;;8.70;;
74791;SDS011;63319;46.046;17.802;2022-11-28T09:18:59;17.42;;;8.48;;
74791;SDS011;63319;46.046;17.802;2022-11-28T09:22:02;14.85;;;7.32;;
74791;SDS011;63319;46.046;17.802;2022-11-28T09:25:05;15.23;;;8.82;;
74791;SDS011;63319;46.046;17.802;2022-11-28T09:28:09;18.23;;;8.70;;
74791;SDS011;63319;46.046;17.802;2022-11-28T09:31:12;42.83;;;8.67;;
74791;SDS011;63319;46.046;17.802;2022-11-28T09:34:19;13.82;;;8.27;;
74791;SDS011;63319;46.046;17.802;2022-11-28T09:37:22;15.75;;;8.65;;
74791;SDS011;63319;46.046;17.802;2022-11-28T09:40:35;18.40;;;8.80;;
74791;SDS011;63319;46.046;17.802;2022-11-28T09:43:41;18.53;;;9.40;;
74791;SDS011;63319;46.046;17.802;2022-11-28T09:46:46;17.10;;;9.40;;
74791;SDS011;63319;46.046;17.802;2022-11-28T09:49:57;18.92;;;9.52;;
74791;SDS011;63319;46.046;17.802;2022-11-28T09:53:13;24.83;;;9.80;;
74791;SDS011;63319;46.046;17.802;2022-11-28T09:56:43;16.83;;;8.95;;
74791;SDS011;63319;46.046;17.802;2022-11-28T09:59:49;20.00;;;8.87;;
74791;SDS011;63319;46.046;17.802;2022-11-28T10:06:21;16.73;;;9.70;;
74791;SDS011;63319;46.046;17.802;2022-11-28T10:09:34;17.00;;;8.52;;
74791;SDS011;63319;46.046;17.802;2022-11-28T10:13:11;16.58;;;8.65;;
74791;SDS011;63319;46.046;17.802;2022-11-28T10:20:10;17.13;;;8.20;;
74791;SDS011;63319;46.046;17.802;2022-11-28T10:23:23;16.08;;;8.82;;
74791;SDS011;63319;46.046;17.802;2022-11-28T10:26:35;17.45;;;7.75;;
74791;SDS011;63319;46.046;17.802;2022-11-28T10:29:42;14.18;;;8.10;;
74791;SDS011;63319;46.046;17.802;2022-11-28T10:33:27;14.93;;;8.50;;
74791;SDS011;63319;46.046;17.802;2022-11-28T10:36:46;17.90;;;9.50;;
74791;SDS011;63319;46.046;17.802;2022-11-28T10:40:15;17.30;;;9.07;;
74791;SDS011;63319;46.046;17.802;2022-11-28T10:43:34;17.17;;;9.80;;
74791;SDS011;63319;46.046;17.802;2022-11-28T10:50:07;21.57;;;10.53;;
74791;SDS011;63319;46.046;17.802;2022-11-28T11:03:17;24.73;;;12.90;;
74791;SDS011;63319;46.046;17.802;2022-11-28T11:06:23;24.83;;;12.93;;
74791;SDS011;63319;46.046;17.802;2022-11-28T11:09:42;23.97;;;13.67;;
74791;SDS011;63319;46.046;17.802;2022-11-28T11:12:45;24.77;;;13.27;;
74791;SDS011;63319;46.046;17.802;2022-11-28T11:19:01;27.27;;;13.60;;
74791;SDS011;63319;46.046;17.802;2022-11-28T11:25:15;26.50;;;14.23;;
74791;SDS011;63319;46.046;17.802;2022-11-28T11:28:42;26.45;;;14.38;;
74791;SDS011;63319;46.046;17.802;2022-11-28T11:31:49;25.88;;;14.27;;
74791;SDS011;63319;46.046;17.802;2022-11-28T11:34:54;28.63;;;14.43;;
74791;SDS011;63319;46.046;17.802;2022-11-28T11:41:28;29.27;;;14.77;;
74791;SDS011;63319;46.046;17.802;2022-11-28T11:44:33;31.98;;;14.73;;
74791;SDS011;63319;46.046;17.802;2022-11-28T11:47:40;28.30;;;15.75;;
74791;SDS011;63319;46.046;17.802;2022-11-28T11:50:52;25.52;;;15.13;;
74791;SDS011;63319;46.046;17.802;2022-11-28T11:54:14;29.30;;;14.53;;
74791;SDS011;63319;46.046;17.802;2022-11-28T11:57:19;27.13;;;16.13;;
74791;SDS011;63319;46.046;17.802;2022-11-28T12:00:39;27.27;;;14.88;;
74791;SDS011;63319;46.046;17.802;2022-11-28T12:03:58;25.70;;;14.02;;
74791;SDS011;63319;46.046;17.802;2022-11-28T12:11:21;27.33;;;14.30;;
74791;SDS011;63319;46.046;17.802;2022-11-28T12:17:43;27.77;;;15.00;;
74791;SDS011;63319;46.046;17.802;2022-11-28T12:52:19;23.67;;;14.52;;
74791;SDS011;63319;46.046;17.802;2022-11-28T12:55:35;23.60;;;13.52;;
74791;SDS011;63319;46.046;17.802;2022-11-28T12:59:36;23.98;;;13.65;;
74791;SDS011;63319;46.046;17.802;2022-11-28T13:02:28;22.67;;;13.50;;
74791;SDS011;63319;46.046;17.802;2022-11-28T13:05:48;23.37;;;13.57;;
74791;SDS011;63319;46.046;17.802;2022-11-28T13:16:32;27.33;;;14.43;;
74791;SDS011;63319;46.046;17.802;2022-11-28T13:19:42;28.67;;;15.10;;
74791;SDS011;63319;46.046;17.802;2022-11-28T13:23:21;26.40;;;15.83;;
74791;SDS011;63319;46.046;17.802;2022-11-28T13:33:46;29.73;;;15.55;;
74791;SDS011;63319;46.046;17.802;2022-11-28T13:40:30;27.30;;;14.57;;
74791;SDS011;63319;46.046;17.802;2022-11-28T13:43:49;26.50;;;14.85;;
74791;SDS011;63319;46.046;17.802;2022-11-28T13:50:31;31.05;;;15.70;;
74791;SDS011;63319;46.046;17.802;2022-11-28T13:53:41;32.83;;;15.20;;
74791;SDS011;63319;46.046;17.802;2022-11-28T13:56:45;35.10;;;14.67;;
74791;SDS011;63319;46.046;17.802;2022-11-28T14:03:24;31.92;;;15.02;;
74791;SDS011;63319;46.046;17.802;2022-11-28T14:06:28;31.88;;;14.85;;
74791;SDS011;63319;46.046;17.802;2022-11-28T14:09:45;25.03;;;13.83;;
74791;SDS011;63319;46.046;17.802;2022-11-28T14:16:29;28.60;;;13.40;;
74791;SDS011;63319;46.046;17.802;2022-11-28T14:20:01;29.88;;;14.25;;
74791;SDS011;63319;46.046;17.802;2022-11-28T14:23:28;30.92;;;16.15;;
74791;SDS011;63319;46.046;17.802;2022-11-28T14:27:02;30.23;;;14.83;;
74791;SDS011;63319;46.046;17.802;2022-11-28T14:30:20;32.27;;;14.77;;
74791;SDS011;63319;46.046;17.802;2022-11-28T14:33:39;28.45;;;15.10;;
74791;SDS011;63319;46.046;17.802;2022-11-28T14:36:44;26.45;;;14.02;;
74791;SDS011;63319;46.046;17.802;2022-11-28T14:39:49;25.83;;;14.00;;
74791;SDS011;63319;46.046;17.802;2022-11-28T14:43:19;26.83;;;13.90;;
74791;SDS011;63319;46.046;17.802;2022-11-28T14:46:26;29.00;;;14.87;;
74791;SDS011;63319;46.046;17.802;2022-11-28T14:49:32;26.02;;;14.95;;
74791;SDS011;63319;46.046;17.802;2022-11-28T14:52:43;30.40;;;13.82;;
74791;SDS011;63319;46.046;17.802;2022-11-28T14:55:47;26.90;;;13.77;;
74791;SDS011;63319;46.046;17.802;2022-11-28T14:58:51;28.10;;;14.00;;
74791;SDS011;63319;46.046;17.802;2022-11-28T15:12:19;27.38;;;14.35;;
74791;SDS011;63319;46.046;17.802;2022-11-28T15:15:30;25.37;;;13.77;;
74791;SDS011;63319;46.046;17.802;2022-11-28T15:18:34;24.33;;;13.40;;
74791;SDS011;63319;46.046;17.802;2022-11-28T15:21:45;26.15;;;13.57;;
74791;SDS011;63319;46.046;17.802;2022-11-28T15:24:52;26.95;;;14.52;;
74791;SDS011;63319;46.046;17.802;2022-11-28T15:27:55;28.25;;;13.85;;
74791;SDS011;63319;46.046;17.802;2022-11-28T15:31:02;25.33;;;13.93;;
74791;SDS011;63319;46.046;17.802;2022-11-28T15:34:07;25.07;;;13.87;;
74791;SDS011;63319;46.046;17.802;2022-11-28T15:37:15;26.67;;;13.82;;
74791;SDS011;63319;46.046;17.802;2022-11-28T15:40:45;23.17;;;13.20;;
74791;SDS011;63319;46.046;17.802;2022-11-28T15:43:50;23.95;;;13.18;;
74791;SDS011;63319;46.046;17.802;2022-11-28T15:46:54;25.17;;;13.93;;
74791;SDS011;63319;46.046;17.802;2022-11-28T15:49:58;24.40;;;13.27;;
74791;SDS011;63319;46.046;17.802;2022-11-28T15:53:14;23.95;;;11.80;;
74791;SDS011;63319;46.046;17.802;2022-11-28T15:56:19;24.65;;;13.13;;
74791;SDS011;63319;46.046;17.802;2022-11-28T15:59:21;23.48;;;13.88;;
74791;SDS011;63319;46.046;17.802;2022-11-28T16:02:29;22.90;;;12.47;;
74791;SDS011;63319;46.046;17.802;2022-11-28T16:05:35;24.00;;;13.07;;
74791;SDS011;63319;46.046;17.802;2022-11-28T16:08:45;27.20;;;14.43;;
74791;SDS011;63319;46.046;17.802;2022-11-28T16:11:52;25.65;;;13.20;;
74791;SDS011;63319;46.046;17.802;2022-11-28T16:14:55;23.77;;;13.77;;
74791;SDS011;63319;46.046;17.802;2022-11-28T16:18:03;24.20;;;13.47;;
74791;SDS011;63319;46.046;17.802;2022-11-28T16:21:06;22.87;;;13.13;;
74791;SDS011;63319;46.046;17.802;2022-11-28T16:24:23;22.52;;;13.13;;
74791;SDS011;63319;46.046;17.802;2022-11-28T16:27:40;23.25;;;12.75;;
74791;SDS011;63319;46.046;17.802;2022-11-28T16:30:46;20.60;;;12.07;;
74791;SDS011;63319;46.046;17.802;2022-11-28T16:33:50;24.70;;;12.83;;
74791;SDS011;63319;46.046;17.802;2022-11-28T16:36:53;23.30;;;13.20;;
74791;SDS011;63319;46.046;17.802;2022-11-28T16:40:02;21.80;;;11.93;;
74791;SDS011;63319;46.046;17.802;2022-11-28T16:46:39;22.52;;;12.40;;
74791;SDS011;63319;46.046;17.802;2022-11-28T16:56:46;20.42;;;12.35;;
74791;SDS011;63319;46.046;17.802;2022-11-28T16:59:49;22.33;;;11.95;;
74791;SDS011;63319;46.046;17.802;2022-11-28T17:02:56;22.40;;;12.15;;
74791;SDS011;63319;46.046;17.802;2022-11-28T17:05:59;21.50;;;12.27;;
74791;SDS011;63319;46.046;17.802;2022-11-28T17:09:03;23.20;;;12.47;;
74791;SDS011;63319;46.046;17.802;2022-11-28T17:15:17;20.25;;;12.00;;
74791;SDS011;63319;46.046;17.802;2022-11-28T17:18:23;22.85;;;12.98;;
74791;SDS011;63319;46.046;17.802;2022-11-28T17:21:31;21.90;;;11.90;;
74791;SDS011;63319;46.046;17.802;2022-11-28T17:24:37;23.30;;;12.37;;
74791;SDS011;63319;46.046;17.802;2022-11-28T17:27:41;22.38;;;12.55;;
74791;SDS011;63319;46.046;17.802;2022-11-28T17:30:44;21.80;;;12.63;;
74791;SDS011;63319;46.046;17.802;2022-11-28T17:33:48;22.00;;;12.90;;
74791;SDS011;63319;46.046;17.802;2022-11-28T17:36:51;21.07;;;12.50;;
74791;SDS011;63319;46.046;17.802;2022-11-28T17:39:57;22.53;;;12.23;;
74791;SDS011;63319;46.046;17.802;2022-11-28T17:43:20;21.33;;;12.43;;
74791;SDS011;63319;46.046;17.802;2022-11-28T17:46:24;20.23;;;11.73;;
74791;SDS011;63319;46.046;17.802;2022-11-28T17:49:27;20.05;;;12.70;;
74791;SDS011;63319;46.046;17.802;2022-11-28T17:52:32;20.00;;;12.07;;
74791;SDS011;63319;46.046;17.802;2022-11-28T17:55:39;22.17;;;13.03;;
74791;SDS011;63319;46.046;17.802;2022-11-28T17:58:46;21.05;;;13.43;;
74791;SDS011;63319;46.046;17.802;2022-11-28T18:01:49;23.13;;;12.30;;
74791;SDS011;63319;46.046;17.802;2022-11-28T18:04:57;21.58;;;12.52;;
74791;SDS011;63319;46.046;17.802;2022-11-28T18:08:00;22.60;;;12.80;;
74791;SDS011;63319;46.046;17.802;2022-11-28T18:11:04;21.77;;;12.23;;
74791;SDS011;63319;46.046;17.802;2022-11-28T18:14:09;21.30;;;12.65;;
74791;SDS011;63319;46.046;17.802;2022-11-28T18:17:12;20.63;;;11.20;;
74791;SDS011;63319;46.046;17.802;2022-11-28T18:20:15;23.85;;;13.25;;
74791;SDS011;63319;46.046;17.802;2022-11-28T18:23:19;21.17;;;12.33;;
74791;SDS011;63319;46.046;17.802;2022-11-28T18:26:23;21.30;;;12.43;;
74791;SDS011;63319;46.046;17.802;2022-11-28T18:29:28;22.85;;;13.02;;
74791;SDS011;63319;46.046;17.802;2022-11-28T18:32:31;21.73;;;12.65;;
74791;SDS011;63319;46.046;17.802;2022-11-28T18:35:35;18.88;;;11.85;;
74791;SDS011;63319;46.046;17.802;2022-11-28T18:38:38;21.53;;;12.17;;
74791;SDS011;63319;46.046;17.802;2022-11-28T18:41:41;21.27;;;12.67;;
74791;SDS011;63319;46.046;17.802;2022-11-28T18:44:45;21.50;;;13.60;;
74791;SDS011;63319;46.046;17.802;2022-11-28T18:47:48;20.42;;;11.63;;
74791;SDS011;63319;46.046;17.802;2022-11-28T18:50:51;20.65;;;12.82;;
74791;SDS011;63319;46.046;17.802;2022-11-28T18:53:55;20.97;;;12.50;;
74791;SDS011;63319;46.046;17.802;2022-11-28T18:56:59;19.83;;;11.10;;
74791;SDS011;63319;46.046;17.802;2022-11-28T19:00:03;19.23;;;12.07;;
74791;SDS011;63319;46.046;17.802;2022-11-28T19:03:07;20.95;;;11.75;;
74791;SDS011;63319;46.046;17.802;2022-11-28T19:06:11;19.63;;;11.85;;
74791;SDS011;63319;46.046;17.802;2022-11-28T19:09:15;20.27;;;12.03;;
74791;SDS011;63319;46.046;17.802;2022-11-28T19:12:18;20.73;;;11.80;;
74791;SDS011;63319;46.046;17.802;2022-11-28T19:15:23;21.13;;;12.07;;
74791;SDS011;63319;46.046;17.802;2022-11-28T19:18:27;20.35;;;12.13;;
74791;SDS011;63319;46.046;17.802;2022-11-28T19:21:31;19.02;;;11.32;;
74791;SDS011;63319;46.046;17.802;2022-11-28T19:24:36;18.13;;;11.00;;
74791;SDS011;63319;46.046;17.802;2022-11-28T19:27:40;20.33;;;12.47;;
74791;SDS011;63319;46.046;17.802;2022-11-28T19:30:44;19.15;;;11.43;;
74791;SDS011;63319;46.046;17.802;2022-11-28T19:33:52;21.40;;;12.27;;
74791;SDS011;63319;46.046;17.802;2022-11-28T19:37:02;19.42;;;11.85;;
74791;SDS011;63319;46.046;17.802;2022-11-28T19:40:06;19.37;;;11.27;;
74791;SDS011;63319;46.046;17.802;2022-11-28T19:43:10;18.80;;;11.73;;
74791;SDS011;63319;46.046;17.802;2022-11-28T19:46:14;17.48;;;10.88;;
74791;SDS011;63319;46.046;17.802;2022-11-28T19:49:20;18.95;;;12.25;;
74791;SDS011;63319;46.046;17.802;2022-11-28T19:52:26;18.70;;;11.20;;
74791;SDS011;63319;46.046;17.802;2022-11-28T19:55:30;20.57;;;11.90;;
74791;SDS011;63319;46.046;17.802;2022-11-28T19:58:34;19.20;;;11.63;;
74791;SDS011;63319;46.046;17.802;2022-11-28T20:01:38;21.40;;;12.70;;
74791;SDS011;63319;46.046;17.802;2022-11-28T20:04:42;20.52;;;11.70;;
74791;SDS011;63319;46.046;17.802;2022-11-28T20:07:45;19.65;;;11.52;;
74791;SDS011;63319;46.046;17.802;2022-11-28T20:10:49;19.17;;;11.67;;
74791;SDS011;63319;46.046;17.802;2022-11-28T20:13:56;18.50;;;11.30;;
74791;SDS011;63319;46.046;17.802;2022-11-28T20:17:02;20.13;;;11.88;;
74791;SDS011;63319;46.046;17.802;2022-11-28T20:20:07;19.25;;;11.48;;
74791;SDS011;63319;46.046;17.802;2022-11-28T20:23:14;21.30;;;11.80;;
74791;SDS011;63319;46.046;17.802;2022-11-28T20:26:19;19.57;;;11.93;;
74791;SDS011;63319;46.046;17.802;2022-11-28T20:29:25;18.57;;;11.77;;
74791;SDS011;63319;46.046;17.802;2022-11-28T20:32:30;19.45;;;12.05;;
74791;SDS011;63319;46.046;17.802;2022-11-28T20:35:34;21.35;;;11.65;;
74791;SDS011;63319;46.046;17.802;2022-11-28T20:38:37;17.02;;;10.98;;
74791;SDS011;63319;46.046;17.802;2022-11-28T20:41:41;19.83;;;11.90;;
74791;SDS011;63319;46.046;17.802;2022-11-28T20:44:44;19.00;;;11.87;;
74791;SDS011;63319;46.046;17.802;2022-11-28T20:47:47;21.58;;;12.50;;
74791;SDS011;63319;46.046;17.802;2022-11-28T20:50:51;20.15;;;12.02;;
74791;SDS011;63319;46.046;17.802;2022-11-28T20:53:54;22.60;;;13.00;;
74791;SDS011;63319;46.046;17.802;2022-11-28T20:56:58;18.13;;;11.73;;
74791;SDS011;63319;46.046;17.802;2022-11-28T21:00:21;21.20;;;11.73;;